Lauderdale, MS (39335)

9:19 PM CDT on July 23, 2016 (GMT -0500)
Bailey, MS (Cook Road) | | Change Station

Elev 424 ft 32.46 °N, 88.69 °W | Updated 8 seconds ago

Clear
Clear
79.5 °F
Feels Like 84 °F
N
0.0
Wind Variable Wind from NW
Gusts 0.0 mph

Today
High -- | Low -- °F
--% Chance of Precip.
Yesterday
High -- | Low -- °F
Precip. -- in
Pressure 29.96 in
Visibility 10.0 miles
Clouds Clear
Heat Index 84 °F
Dew Point 76 °F
Humidity 89%
Rainfall 0.00 in
Snow Depth Not available.
6:03 AM 7:58 PM
Waning Gibbous, 80% visible
METAR KMEI 240158Z 30003KT 10SM CLR 27/24 A2998 RMK AO2 SLP146 T02720239
Pressure 29.96 in
Visibility 10.0 miles
Clouds Clear
Heat Index 84 °F
Dew Point 76 °F
Humidity 89%
Rainfall 0.00 in
Snow Depth Not available.
6:03 AM 7:58 PM
Waning Gibbous, 80% visible
METAR KMEI 240158Z 30003KT 10SM CLR 27/24 A2998 RMK AO2 SLP146 T02720239

10-Day Weather Forecast

Almanac

Astronomy

Jul. 23, 2016 Rise Set
Actual Time
Civil Twilight
Nautical Twilight
Astronomical Twilight
Moon
Length of Visible Light
Length of Day
Tomorrow will be .
, % of the Moon is Illuminated

Today's Extremes

State Highs State Lows

Community

WunderPhotos

Upload Photos

1,927,000 photos uploaded!

WunderBlog® & News

Nearby

Air Quality

  Air Quality AQ Index Pollutant
Not available.

Snow Depth

Station Depth Elevation

Earthquake Activity

City Distance Mag. Time & Date
Minimum magnitude displayed is 2.5.

Coastal Water Temperatures

Place Temperature

Stations

Nearby Weather Stations

Station Location Temp. Windchill Dew Point Humidity Wind Precip. Elev Updated Type
                   

Watches & Warnings

There are currently no watches in effect.